sensor_id;sensor_type;location;lat;lon;timestamp;temperature;humidity
77523;SHT31;66637;-29.628;-49.938;2024-03-23T00:55:38;23.02;77.07
77523;SHT31;66637;-29.628;-49.938;2024-03-23T00:58:08;23.10;75.33
77523;SHT31;66637;-29.628;-49.938;2024-03-23T01:00:37;23.04;76.00
77523;SHT31;66637;-29.628;-49.938;2024-03-23T01:03:06;22.99;75.66
77523;SHT31;66637;-29.628;-49.938;2024-03-23T01:05:34;23.03;75.78
77523;SHT31;66637;-29.628;-49.938;2024-03-23T01:08:02;23.08;76.86
77523;SHT31;66637;-29.628;-49.938;2024-03-23T01:10:30;23.07;74.85
77523;SHT31;66637;-29.628;-49.938;2024-03-23T01:12:59;23.02;74.68
77523;SHT31;66637;-29.628;-49.938;2024-03-23T01:15:28;23.06;75.21
77523;SHT31;66637;-29.628;-49.938;2024-03-23T01:17:56;22.99;74.60
77523;SHT31;66637;-29.628;-49.938;2024-03-23T01:20:25;23.03;74.21
77523;SHT31;66637;-29.628;-49.938;2024-03-23T01:22:55;23.08;77.14
77523;SHT31;66637;-29.628;-49.938;2024-03-23T01:25:23;23.06;76.00
77523;SHT31;66637;-29.628;-49.938;2024-03-23T01:27:51;23.02;76.18
77523;SHT31;66637;-29.628;-49.938;2024-03-23T01:30:20;23.08;75.97
77523;SHT31;66637;-29.628;-49.938;2024-03-23T01:32:49;23.04;76.06
77523;SHT31;66637;-29.628;-49.938;2024-03-23T01:35:18;23.15;75.60
77523;SHT31;66637;-29.628;-49.938;2024-03-23T01:37:47;23.06;74.92
77523;SHT31;66637;-29.628;-49.938;2024-03-23T01:40:17;23.06;75.80
77523;SHT31;66637;-29.628;-49.938;2024-03-23T01:42:58;23.04;74.06
77523;SHT31;66637;-29.628;-49.938;2024-03-23T01:45:27;23.07;75.01
77523;SHT31;66637;-29.628;-49.938;2024-03-23T01:47:57;23.00;74.14
77523;SHT31;66637;-29.628;-49.938;2024-03-23T01:50:26;23.04;75.26
77523;SHT31;66637;-29.628;-49.938;2024-03-23T01:52:55;23.06;73.52
77523;SHT31;66637;-29.628;-49.938;2024-03-23T01:55:24;22.99;75.37
77523;SHT31;66637;-29.628;-49.938;2024-03-23T01:57:57;22.97;75.12
77523;SHT31;66637;-29.628;-49.938;2024-03-23T02:00:25;23.00;75.87
77523;SHT31;66637;-29.628;-49.938;2024-03-23T02:02:55;22.99;76.25
77523;SHT31;66637;-29.628;-49.938;2024-03-23T02:05:24;22.90;73.99
77523;SHT31;66637;-29.628;-49.938;2024-03-23T02:07:53;22.84;75.54
77523;SHT31;66637;-29.628;-49.938;2024-03-23T02:10:22;22.83;75.29
77523;SHT31;66637;-29.628;-49.938;2024-03-23T02:12:52;22.79;76.76
77523;SHT31;66637;-29.628;-49.938;2024-03-23T02:15:20;22.87;76.75
77523;SHT31;66637;-29.628;-49.938;2024-03-23T02:17:49;22.80;76.09
77523;SHT31;66637;-29.628;-49.938;2024-03-23T02:20:17;22.82;74.49
77523;SHT31;66637;-29.628;-49.938;2024-03-23T02:22:46;22.80;75.82
77523;SHT31;66637;-29.628;-49.938;2024-03-23T02:25:14;22.87;75.95
77523;SHT31;66637;-29.628;-49.938;2024-03-23T02:27:43;22.86;76.45
77523;SHT31;66637;-29.628;-49.938;2024-03-23T02:30:12;22.94;75.54
77523;SHT31;66637;-29.628;-49.938;2024-03-23T02:32:41;22.83;75.75
77523;SHT31;66637;-29.628;-49.938;2024-03-23T02:35:10;22.82;75.75
77523;SHT31;66637;-29.628;-49.938;2024-03-23T02:37:39;22.83;75.15
77523;SHT31;66637;-29.628;-49.938;2024-03-23T02:40:08;22.86;75.47
77523;SHT31;66637;-29.628;-49.938;2024-03-23T02:42:36;22.87;75.81
77523;SHT31;66637;-29.628;-49.938;2024-03-23T02:45:05;22.96;77.52
77523;SHT31;66637;-29.628;-49.938;2024-03-23T02:47:33;22.92;76.36
77523;SHT31;66637;-29.628;-49.938;2024-03-23T02:50:01;22.86;74.81
77523;SHT31;66637;-29.628;-49.938;2024-03-23T02:52:30;22.87;74.94
77523;SHT31;66637;-29.628;-49.938;2024-03-23T02:55:04;22.92;74.17
77523;SHT31;66637;-29.628;-49.938;2024-03-23T02:57:33;22.90;74.27
77523;SHT31;66637;-29.628;-49.938;2024-03-23T03:00:06;22.93;75.39
77523;SHT31;66637;-29.628;-49.938;2024-03-23T03:02:37;22.97;75.78
77523;SHT31;66637;-29.628;-49.938;2024-03-23T03:05:09;22.90;74.52
77523;SHT31;66637;-29.628;-49.938;2024-03-23T03:07:38;22.93;75.54
77523;SHT31;66637;-29.628;-49.938;2024-03-23T03:10:10;22.96;75.58
77523;SHT31;66637;-29.628;-49.938;2024-03-23T03:12:41;22.96;75.72
77523;SHT31;66637;-29.628;-49.938;2024-03-23T03:15:12;22.93;75.16
77523;SHT31;66637;-29.628;-49.938;2024-03-23T03:17:46;22.96;75.18
77523;SHT31;66637;-29.628;-49.938;2024-03-23T03:20:16;22.93;77.00
77523;SHT31;66637;-29.628;-49.938;2024-03-23T03:22:48;22.90;77.36
77523;SHT31;66637;-29.628;-49.938;2024-03-23T03:25:17;22.89;75.93
77523;SHT31;66637;-29.628;-49.938;2024-03-23T03:27:46;22.99;76.16
77523;SHT31;66637;-29.628;-49.938;2024-03-23T03:30:14;23.03;78.52
77523;SHT31;66637;-29.628;-49.938;2024-03-23T03:32:43;22.93;76.40
77523;SHT31;66637;-29.628;-49.938;2024-03-23T03:35:12;22.97;76.49
77523;SHT31;66637;-29.628;-49.938;2024-03-23T03:37:41;22.92;77.85
77523;SHT31;66637;-29.628;-49.938;2024-03-23T03:40:11;22.84;77.76
77523;SHT31;66637;-29.628;-49.938;2024-03-23T03:42:41;22.84;76.52
77523;SHT31;66637;-29.628;-49.938;2024-03-23T03:45:10;22.90;76.78
77523;SHT31;66637;-29.628;-49.938;2024-03-23T03:47:38;22.93;78.44
77523;SHT31;66637;-29.628;-49.938;2024-03-23T03:50:07;22.89;75.46
77523;SHT31;66637;-29.628;-49.938;2024-03-23T03:52:35;22.94;77.94
77523;SHT31;66637;-29.628;-49.938;2024-03-23T03:55:04;22.96;76.69
77523;SHT31;66637;-29.628;-49.938;2024-03-23T03:57:40;22.93;75.18
77523;SHT31;66637;-29.628;-49.938;2024-03-23T04:00:10;22.93;74.32
77523;SHT31;66637;-29.628;-49.938;2024-03-23T04:02:41;22.92;76.15
77523;SHT31;66637;-29.628;-49.938;2024-03-23T04:05:09;22.90;74.77
77523;SHT31;66637;-29.628;-49.938;2024-03-23T04:07:39;22.89;74.19
77523;SHT31;66637;-29.628;-49.938;2024-03-23T04:10:08;22.87;74.65
77523;SHT31;66637;-29.628;-49.938;2024-03-23T04:12:37;22.89;74.63
77523;SHT31;66637;-29.628;-49.938;2024-03-23T04:15:06;22.89;74.67
77523;SHT31;66637;-29.628;-49.938;2024-03-23T04:17:35;22.96;76.46
77523;SHT31;66637;-29.628;-49.938;2024-03-23T04:20:04;22.97;76.12
77523;SHT31;66637;-29.628;-49.938;2024-03-23T04:22:38;22.94;75.50
77523;SHT31;66637;-29.628;-49.938;2024-03-23T04:25:07;22.93;75.24
77523;SHT31;66637;-29.628;-49.938;2024-03-23T04:27:36;22.97;75.55
77523;SHT31;66637;-29.628;-49.938;2024-03-23T04:30:06;22.94;75.86
77523;SHT31;66637;-29.628;-49.938;2024-03-23T04:32:42;22.94;75.01
77523;SHT31;66637;-29.628;-49.938;2024-03-23T04:35:11;22.99;74.73
77523;SHT31;66637;-29.628;-49.938;2024-03-23T04:37:50;23.02;77.21
77523;SHT31;66637;-29.628;-49.938;2024-03-23T04:40:29;22.94;76.13
77523;SHT31;66637;-29.628;-49.938;2024-03-23T04:42:58;23.00;76.33
77523;SHT31;66637;-29.628;-49.938;2024-03-23T04:45:30;22.94;75.96
77523;SHT31;66637;-29.628;-49.938;2024-03-23T04:48:00;22.96;76.91
77523;SHT31;66637;-29.628;-49.938;2024-03-23T04:50:29;22.93;77.53
77523;SHT31;66637;-29.628;-49.938;2024-03-23T04:52:57;22.94;77.22
77523;SHT31;66637;-29.628;-49.938;2024-03-23T04:55:26;22.87;78.65
77523;SHT31;66637;-29.628;-49.938;2024-03-23T04:57:55;22.86;77.56
77523;SHT31;66637;-29.628;-49.938;2024-03-23T05:00:24;22.83;76.59
77523;SHT31;66637;-29.628;-49.938;2024-03-23T05:02:53;22.87;76.04
77523;SHT31;66637;-29.628;-49.938;2024-03-23T05:05:22;22.89;75.09
77523;SHT31;66637;-29.628;-49.938;2024-03-23T05:07:51;22.90;75.36
77523;SHT31;66637;-29.628;-49.938;2024-03-23T05:10:20;22.90;75.10
77523;SHT31;66637;-29.628;-49.938;2024-03-23T05:12:48;22.93;76.99
77523;SHT31;66637;-29.628;-49.938;2024-03-23T05:15:17;22.87;76.56
77523;SHT31;66637;-29.628;-49.938;2024-03-23T05:17:45;22.89;76.09
77523;SHT31;66637;-29.628;-49.938;2024-03-23T05:20:15;22.92;76.01
77523;SHT31;66637;-29.628;-49.938;2024-03-23T05:22:45;22.93;76.03
77523;SHT31;66637;-29.628;-49.938;2024-03-23T05:25:15;22.94;76.35
77523;SHT31;66637;-29.628;-49.938;2024-03-23T05:27:43;22.94;77.71
77523;SHT31;66637;-29.628;-49.938;2024-03-23T05:30:13;22.89;78.07
77523;SHT31;66637;-29.628;-49.938;2024-03-23T05:32:41;22.89;77.75
77523;SHT31;66637;-29.628;-49.938;2024-03-23T05:35:10;22.93;80.49
77523;SHT31;66637;-29.628;-49.938;2024-03-23T05:37:39;22.90;78.27
77523;SHT31;66637;-29.628;-49.938;2024-03-23T05:40:07;22.80;77.45
77523;SHT31;66637;-29.628;-49.938;2024-03-23T05:42:37;22.87;77.34
77523;SHT31;66637;-29.628;-49.938;2024-03-23T05:45:05;22.86;76.77
77523;SHT31;66637;-29.628;-49.938;2024-03-23T05:47:35;22.89;76.42
77523;SHT31;66637;-29.628;-49.938;2024-03-23T05:50:03;22.89;78.20
77523;SHT31;66637;-29.628;-49.938;2024-03-23T05:52:33;22.83;78.05
77523;SHT31;66637;-29.628;-49.938;2024-03-23T05:55:02;22.79;77.05
77523;SHT31;66637;-29.628;-49.938;2024-03-23T05:57:31;22.86;77.80
77523;SHT31;66637;-29.628;-49.938;2024-03-23T06:00:02;22.83;78.49
77523;SHT31;66637;-29.628;-49.938;2024-03-23T06:02:38;22.83;78.56
77523;SHT31;66637;-29.628;-49.938;2024-03-23T06:05:09;22.76;78.09
77523;SHT31;66637;-29.628;-49.938;2024-03-23T06:07:40;22.69;78.90
77523;SHT31;66637;-29.628;-49.938;2024-03-23T06:10:11;22.66;78.72
77523;SHT31;66637;-29.628;-49.938;2024-03-23T06:12:41;22.70;78.48
77523;SHT31;66637;-29.628;-49.938;2024-03-23T06:15:11;22.76;78.19
77523;SHT31;66637;-29.628;-49.938;2024-03-23T06:17:40;22.74;77.92
77523;SHT31;66637;-29.628;-49.938;2024-03-23T06:20:12;22.76;77.36
77523;SHT31;66637;-29.628;-49.938;2024-03-23T06:22:41;22.74;78.75
77523;SHT31;66637;-29.628;-49.938;2024-03-23T06:25:10;22.62;80.83
77523;SHT31;66637;-29.628;-49.938;2024-03-23T06:27:43;22.52;80.67
77523;SHT31;66637;-29.628;-49.938;2024-03-23T06:30:13;22.46;80.86
77523;SHT31;66637;-29.628;-49.938;2024-03-23T06:32:46;22.45;81.21
77523;SHT31;66637;-29.628;-49.938;2024-03-23T06:35:14;22.38;81.23
77523;SHT31;66637;-29.628;-49.938;2024-03-23T06:37:42;22.38;81.49
77523;SHT31;66637;-29.628;-49.938;2024-03-23T06:40:11;22.42;80.67
77523;SHT31;66637;-29.628;-49.938;2024-03-23T06:42:39;22.35;80.51
77523;SHT31;66637;-29.628;-49.938;2024-03-23T06:45:08;22.33;79.76
77523;SHT31;66637;-29.628;-49.938;2024-03-23T06:47:36;22.28;79.77
77523;SHT31;66637;-29.628;-49.938;2024-03-23T06:50:05;22.26;79.31
77523;SHT31;66637;-29.628;-49.938;2024-03-23T06:52:34;22.32;79.60
77523;SHT31;66637;-29.628;-49.938;2024-03-23T06:55:03;22.42;79.41
77523;SHT31;66637;-29.628;-49.938;2024-03-23T06:57:32;22.41;78.97
77523;SHT31;66637;-29.628;-49.938;2024-03-23T07:00:00;22.35;78.07
77523;SHT31;66637;-29.628;-49.938;2024-03-23T07:02:29;22.41;78.87
77523;SHT31;66637;-29.628;-49.938;2024-03-23T07:04:57;22.39;80.17
77523;SHT31;66637;-29.628;-49.938;2024-03-23T07:07:26;22.05;80.57
77523;SHT31;66637;-29.628;-49.938;2024-03-23T07:09:56;22.04;82.45
77523;SHT31;66637;-29.628;-49.938;2024-03-23T07:12:24;21.85;83.17
77523;SHT31;66637;-29.628;-49.938;2024-03-23T07:14:53;21.68;83.05
77523;SHT31;66637;-29.628;-49.938;2024-03-23T07:17:22;21.64;82.96
77523;SHT31;66637;-29.628;-49.938;2024-03-23T07:19:50;21.68;80.40
77523;SHT31;66637;-29.628;-49.938;2024-03-23T07:22:19;21.68;81.93
77523;SHT31;66637;-29.628;-49.938;2024-03-23T07:24:48;21.60;80.97
77523;SHT31;66637;-29.628;-49.938;2024-03-23T07:27:17;21.61;80.94
77523;SHT31;66637;-29.628;-49.938;2024-03-23T07:29:48;21.68;81.91
77523;SHT31;66637;-29.628;-49.938;2024-03-23T07:32:17;21.70;83.65
77523;SHT31;66637;-29.628;-49.938;2024-03-23T07:34:51;21.67;83.16
77523;SHT31;66637;-29.628;-49.938;2024-03-23T07:37:19;21.55;83.15
77523;SHT31;66637;-29.628;-49.938;2024-03-23T07:39:47;21.46;83.21
77523;SHT31;66637;-29.628;-49.938;2024-03-23T07:42:16;21.47;83.16
77523;SHT31;66637;-29.628;-49.938;2024-03-23T07:44:45;21.60;82.55
77523;SHT31;66637;-29.628;-49.938;2024-03-23T07:47:14;21.62;82.44
77523;SHT31;66637;-29.628;-49.938;2024-03-23T07:49:42;21.68;81.78
77523;SHT31;66637;-29.628;-49.938;2024-03-23T07:52:10;21.71;81.11
77523;SHT31;66637;-29.628;-49.938;2024-03-23T07:54:38;21.78;81.64
77523;SHT31;66637;-29.628;-49.938;2024-03-23T07:57:08;21.81;81.79
77523;SHT31;66637;-29.628;-49.938;2024-03-23T07:59:37;21.77;81.02
77523;SHT31;66637;-29.628;-49.938;2024-03-23T08:02:07;21.82;79.78
77523;SHT31;66637;-29.628;-49.938;2024-03-23T08:04:35;21.84;79.63
77523;SHT31;66637;-29.628;-49.938;2024-03-23T08:07:04;21.90;80.10
77523;SHT31;66637;-29.628;-49.938;2024-03-23T08:09:32;21.87;80.03
77523;SHT31;66637;-29.628;-49.938;2024-03-23T08:12:01;21.87;79.82
77523;SHT31;66637;-29.628;-49.938;2024-03-23T08:14:30;21.90;80.47
77523;SHT31;66637;-29.628;-49.938;2024-03-23T08:16:58;21.88;80.04
77523;SHT31;66637;-29.628;-49.938;2024-03-23T08:19:26;21.97;80.05
77523;SHT31;66637;-29.628;-49.938;2024-03-23T08:21:54;21.98;80.33
77523;SHT31;66637;-29.628;-49.938;2024-03-23T08:24:23;22.00;79.72
77523;SHT31;66637;-29.628;-49.938;2024-03-23T08:26:51;22.02;79.88
77523;SHT31;66637;-29.628;-49.938;2024-03-23T08:29:19;22.05;80.24
77523;SHT31;66637;-29.628;-49.938;2024-03-23T08:31:48;22.06;80.13
77523;SHT31;66637;-29.628;-49.938;2024-03-23T08:34:17;22.12;80.02
77523;SHT31;66637;-29.628;-49.938;2024-03-23T08:36:46;22.18;81.21
77523;SHT31;66637;-29.628;-49.938;2024-03-23T08:39:15;22.23;81.27
77523;SHT31;66637;-29.628;-49.938;2024-03-23T08:41:44;22.04;80.08
77523;SHT31;66637;-29.628;-49.938;2024-03-23T08:44:13;22.01;81.19
77523;SHT31;66637;-29.628;-49.938;2024-03-23T08:46:42;22.04;81.56
77523;SHT31;66637;-29.628;-49.938;2024-03-23T08:49:10;21.94;80.82
77523;SHT31;66637;-29.628;-49.938;2024-03-23T08:51:39;21.94;81.33
77523;SHT31;66637;-29.628;-49.938;2024-03-23T08:54:07;21.90;80.67
77523;SHT31;66637;-29.628;-49.938;2024-03-23T08:56:35;21.94;80.68
77523;SHT31;66637;-29.628;-49.938;2024-03-23T08:59:03;22.02;81.38
77523;SHT31;66637;-29.628;-49.938;2024-03-23T09:01:32;22.12;81.05
77523;SHT31;66637;-29.628;-49.938;2024-03-23T09:04:00;21.97;81.18
77523;SHT31;66637;-29.628;-49.938;2024-03-23T09:06:28;21.73;82.16
77523;SHT31;66637;-29.628;-49.938;2024-03-23T09:08:57;21.57;83.06
77523;SHT31;66637;-29.628;-49.938;2024-03-23T09:11:25;21.51;83.62
77523;SHT31;66637;-29.628;-49.938;2024-03-23T09:13:54;21.41;84.03
77523;SHT31;66637;-29.628;-49.938;2024-03-23T09:16:23;21.38;84.20
77523;SHT31;66637;-29.628;-49.938;2024-03-23T09:18:52;21.33;84.40
77523;SHT31;66637;-29.628;-49.938;2024-03-23T09:21:20;21.29;84.79
77523;SHT31;66637;-29.628;-49.938;2024-03-23T09:23:48;21.26;85.18
77523;SHT31;66637;-29.628;-49.938;2024-03-23T09:26:17;21.23;85.16
77523;SHT31;66637;-29.628;-49.938;2024-03-23T09:28:47;21.19;85.54
77523;SHT31;66637;-29.628;-49.938;2024-03-23T09:31:17;21.13;85.66
77523;SHT31;66637;-29.628;-49.938;2024-03-23T09:33:46;21.09;85.83
77523;SHT31;66637;-29.628;-49.938;2024-03-23T09:36:19;21.11;86.14
77523;SHT31;66637;-29.628;-49.938;2024-03-23T09:38:48;21.11;85.69
77523;SHT31;66637;-29.628;-49.938;2024-03-23T09:41:17;21.13;85.47
77523;SHT31;66637;-29.628;-49.938;2024-03-23T09:43:45;21.14;85.49
77523;SHT31;66637;-29.628;-49.938;2024-03-23T09:46:15;21.13;85.70
77523;SHT31;66637;-29.628;-49.938;2024-03-23T09:48:46;21.13;85.91
77523;SHT31;66637;-29.628;-49.938;2024-03-23T09:51:15;21.22;85.86
77523;SHT31;66637;-29.628;-49.938;2024-03-23T09:53:44;21.20;85.92
77523;SHT31;66637;-29.628;-49.938;2024-03-23T09:56:13;21.22;85.99
77523;SHT31;66637;-29.628;-49.938;2024-03-23T09:58:41;21.26;85.89
77523;SHT31;66637;-29.628;-49.938;2024-03-23T10:01:10;21.22;86.13
77523;SHT31;66637;-29.628;-49.938;2024-03-23T10:03:45;21.29;85.95
77523;SHT31;66637;-29.628;-49.938;2024-03-23T10:06:14;21.31;85.74
77523;SHT31;66637;-29.628;-49.938;2024-03-23T10:08:49;21.29;85.86
77523;SHT31;66637;-29.628;-49.938;2024-03-23T10:11:19;21.34;85.70
77523;SHT31;66637;-29.628;-49.938;2024-03-23T10:13:49;21.31;85.66
77523;SHT31;66637;-29.628;-49.938;2024-03-23T10:16:23;21.31;85.72
77523;SHT31;66637;-29.628;-49.938;2024-03-23T10:18:52;21.33;85.53
77523;SHT31;66637;-29.628;-49.938;2024-03-23T10:21:21;21.36;85.41
77523;SHT31;66637;-29.628;-49.938;2024-03-23T10:23:50;21.40;85.69
77523;SHT31;66637;-29.628;-49.938;2024-03-23T10:26:21;21.40;85.22
77523;SHT31;66637;-29.628;-49.938;2024-03-23T10:31:23;21.46;84.83
77523;SHT31;66637;-29.628;-49.938;2024-03-23T10:33:52;21.47;84.95
77523;SHT31;66637;-29.628;-49.938;2024-03-23T10:36:25;21.57;84.56
77523;SHT31;66637;-29.628;-49.938;2024-03-23T10:38:57;21.57;84.37
77523;SHT31;66637;-29.628;-49.938;2024-03-23T10:41:32;21.62;84.26
77523;SHT31;66637;-29.628;-49.938;2024-03-23T10:44:02;21.65;84.21
77523;SHT31;66637;-29.628;-49.938;2024-03-23T10:46:31;21.71;83.72
77523;SHT31;66637;-29.628;-49.938;2024-03-23T10:48:59;21.67;83.84
77523;SHT31;66637;-29.628;-49.938;2024-03-23T10:51:28;21.85;83.71
77523;SHT31;66637;-29.628;-49.938;2024-03-23T10:53:57;21.71;84.09
77523;SHT31;66637;-29.628;-49.938;2024-03-23T10:56:27;21.71;84.23
77523;SHT31;66637;-29.628;-49.938;2024-03-23T10:59:02;21.65;84.14
77523;SHT31;66637;-29.628;-49.938;2024-03-23T11:01:31;21.57;84.07
77523;SHT31;66637;-29.628;-49.938;2024-03-23T11:04:00;21.60;84.13
77523;SHT31;66637;-29.628;-49.938;2024-03-23T11:06:38;21.62;84.28
77523;SHT31;66637;-29.628;-49.938;2024-03-23T11:17:25;21.81;83.34
77523;SHT31;66637;-29.628;-49.938;2024-03-23T11:22:44;22.02;81.88
77523;SHT31;66637;-29.628;-49.938;2024-03-23T11:27:44;22.32;81.12
77523;SHT31;66637;-29.628;-49.938;2024-03-23T11:30:20;22.76;80.56
77523;SHT31;66637;-29.628;-49.938;2024-03-23T11:32:57;23.08;79.28
77523;SHT31;66637;-29.628;-49.938;2024-03-23T11:35:29;23.18;78.64
77523;SHT31;66637;-29.628;-49.938;2024-03-23T11:38:03;23.27;77.85
77523;SHT31;66637;-29.628;-49.938;2024-03-23T11:40:35;23.48;77.98
77523;SHT31;66637;-29.628;-49.938;2024-03-23T11:43:06;23.50;77.39
77523;SHT31;66637;-29.628;-49.938;2024-03-23T11:48:17;24.29;75.46
77523;SHT31;66637;-29.628;-49.938;2024-03-23T11:50:54;24.33;74.79
77523;SHT31;66637;-29.628;-49.938;2024-03-23T11:53:23;24.40;74.84
77523;SHT31;66637;-29.628;-49.938;2024-03-23T11:55:56;24.55;74.58
77523;SHT31;66637;-29.628;-49.938;2024-03-23T11:58:26;24.43;73.72
77523;SHT31;66637;-29.628;-49.938;2024-03-23T12:00:59;24.26;74.92
77523;SHT31;66637;-29.628;-49.938;2024-03-23T12:03:29;23.90;74.97
77523;SHT31;66637;-29.628;-49.938;2024-03-23T12:06:01;23.88;77.07
77523;SHT31;66637;-29.628;-49.938;2024-03-23T12:08:35;23.51;75.94
77523;SHT31;66637;-29.628;-49.938;2024-03-23T12:11:13;23.35;76.38
77523;SHT31;66637;-29.628;-49.938;2024-03-23T12:13:44;23.37;76.45
77523;SHT31;66637;-29.628;-49.938;2024-03-23T12:18:44;23.41;76.51
77523;SHT31;66637;-29.628;-49.938;2024-03-23T12:21:13;23.38;76.71
77523;SHT31;66637;-29.628;-49.938;2024-03-23T12:23:42;23.50;77.07
77523;SHT31;66637;-29.628;-49.938;2024-03-23T12:26:12;23.53;76.74
77523;SHT31;66637;-29.628;-49.938;2024-03-23T12:28:42;23.51;75.98
77523;SHT31;66637;-29.628;-49.938;2024-03-23T12:31:10;23.67;76.39
77523;SHT31;66637;-29.628;-49.938;2024-03-23T12:33:39;23.67;75.70
77523;SHT31;66637;-29.628;-49.938;2024-03-23T12:36:07;23.65;75.64
77523;SHT31;66637;-29.628;-49.938;2024-03-23T12:38:36;24.13;75.13
77523;SHT31;66637;-29.628;-49.938;2024-03-23T12:41:04;24.57;73.47
77523;SHT31;66637;-29.628;-49.938;2024-03-23T12:43:33;24.55;74.46
77523;SHT31;66637;-29.628;-49.938;2024-03-23T12:46:03;24.41;74.24
77523;SHT31;66637;-29.628;-49.938;2024-03-23T12:48:31;24.32;74.41
77523;SHT31;66637;-29.628;-49.938;2024-03-23T12:51:00;24.28;74.39
77523;SHT31;66637;-29.628;-49.938;2024-03-23T12:53:28;24.36;73.59
77523;SHT31;66637;-29.628;-49.938;2024-03-23T12:55:57;24.49;74.09
77523;SHT31;66637;-29.628;-49.938;2024-03-23T12:58:26;24.73;73.97
77523;SHT31;66637;-29.628;-49.938;2024-03-23T13:00:54;24.92;72.58
77523;SHT31;66637;-29.628;-49.938;2024-03-23T13:03:23;25.37;72.68
77523;SHT31;66637;-29.628;-49.938;2024-03-23T13:05:53;25.82;71.11
77523;SHT31;66637;-29.628;-49.938;2024-03-23T13:08:21;26.47;69.98
77523;SHT31;66637;-29.628;-49.938;2024-03-23T13:10:53;26.83;68.27
77523;SHT31;66637;-29.628;-49.938;2024-03-23T13:13:23;27.02;68.22
77523;SHT31;66637;-29.628;-49.938;2024-03-23T13:15:51;26.58;69.71
77523;SHT31;66637;-29.628;-49.938;2024-03-23T13:18:21;26.30;70.06
77523;SHT31;66637;-29.628;-49.938;2024-03-23T13:20:50;26.13;71.27
77523;SHT31;66637;-29.628;-49.938;2024-03-23T13:23:18;26.19;70.95
77523;SHT31;66637;-29.628;-49.938;2024-03-23T13:25:53;26.44;70.57
77523;SHT31;66637;-29.628;-49.938;2024-03-23T13:28:22;26.36;71.66
77523;SHT31;66637;-29.628;-49.938;2024-03-23T13:30:56;26.39;70.61
77523;SHT31;66637;-29.628;-49.938;2024-03-23T13:33:31;26.58;70.50
77523;SHT31;66637;-29.628;-49.938;2024-03-23T13:36:01;26.83;70.49
77523;SHT31;66637;-29.628;-49.938;2024-03-23T13:38:32;27.09;69.05
77523;SHT31;66637;-29.628;-49.938;2024-03-23T13:41:01;27.82;68.12
77523;SHT31;66637;-29.628;-49.938;2024-03-23T13:43:33;28.20;67.60
77523;SHT31;66637;-29.628;-49.938;2024-03-23T13:46:01;28.00;66.61
77523;SHT31;66637;-29.628;-49.938;2024-03-23T13:48:30;27.60;68.36
77523;SHT31;66637;-29.628;-49.938;2024-03-23T13:51:00;27.52;68.61
77523;SHT31;66637;-29.628;-49.938;2024-03-23T13:53:30;27.63;68.20
77523;SHT31;66637;-29.628;-49.938;2024-03-23T13:56:02;27.59;68.16
77523;SHT31;66637;-29.628;-49.938;2024-03-23T13:58:31;27.59;67.85
77523;SHT31;66637;-29.628;-49.938;2024-03-23T14:01:00;27.56;66.83
77523;SHT31;66637;-29.628;-49.938;2024-03-23T14:03:29;27.88;68.41
77523;SHT31;66637;-29.628;-49.938;2024-03-23T14:06:01;27.73;66.99
77523;SHT31;66637;-29.628;-49.938;2024-03-23T14:08:32;27.70;67.70
77523;SHT31;66637;-29.628;-49.938;2024-03-23T14:11:01;27.55;68.16
77523;SHT31;66637;-29.628;-49.938;2024-03-23T14:13:30;27.62;67.05
77523;SHT31;66637;-29.628;-49.938;2024-03-23T14:16:00;27.82;67.59
77523;SHT31;66637;-29.628;-49.938;2024-03-23T14:18:32;27.66;68.52
77523;SHT31;66637;-29.628;-49.938;2024-03-23T14:21:06;27.60;67.52
77523;SHT31;66637;-29.628;-49.938;2024-03-23T14:23:34;27.50;67.38
77523;SHT31;66637;-29.628;-49.938;2024-03-23T14:26:03;27.35;69.59
77523;SHT31;66637;-29.628;-49.938;2024-03-23T14:28:32;27.16;69.70
77523;SHT31;66637;-29.628;-49.938;2024-03-23T14:31:00;27.42;69.91
77523;SHT31;66637;-29.628;-49.938;2024-03-23T14:33:28;26.97;69.48
77523;SHT31;66637;-29.628;-49.938;2024-03-23T14:35:58;26.98;69.94
77523;SHT31;66637;-29.628;-49.938;2024-03-23T14:38:26;27.02;69.44
77523;SHT31;66637;-29.628;-49.938;2024-03-23T14:41:00;27.25;68.91
77523;SHT31;66637;-29.628;-49.938;2024-03-23T14:43:30;27.62;68.16
77523;SHT31;66637;-29.628;-49.938;2024-03-23T14:46:07;28.07;69.01
77523;SHT31;66637;-29.628;-49.938;2024-03-23T14:48:36;28.60;67.32
77523;SHT31;66637;-29.628;-49.938;2024-03-23T14:51:05;28.85;66.69
77523;SHT31;66637;-29.628;-49.938;2024-03-23T14:53:45;28.65;67.62
77523;SHT31;66637;-29.628;-49.938;2024-03-23T14:56:20;28.65;68.08
77523;SHT31;66637;-29.628;-49.938;2024-03-23T14:58:53;28.68;66.39
77523;SHT31;66637;-29.628;-49.938;2024-03-23T15:01:26;28.51;67.45
77523;SHT31;66637;-29.628;-49.938;2024-03-23T15:03:56;28.51;66.89
77523;SHT31;66637;-29.628;-49.938;2024-03-23T15:06:24;28.55;66.63
77523;SHT31;66637;-29.628;-49.938;2024-03-23T15:08:54;28.58;65.93
77523;SHT31;66637;-29.628;-49.938;2024-03-23T15:11:26;28.68;66.83
77523;SHT31;66637;-29.628;-49.938;2024-03-23T15:13:56;28.60;66.35
77523;SHT31;66637;-29.628;-49.938;2024-03-23T15:16:30;28.57;67.28
77523;SHT31;66637;-29.628;-49.938;2024-03-23T15:19:00;28.43;67.48
77523;SHT31;66637;-29.628;-49.938;2024-03-23T15:21:28;28.40;67.27
77523;SHT31;66637;-29.628;-49.938;2024-03-23T15:23:57;28.36;68.46
77523;SHT31;66637;-29.628;-49.938;2024-03-23T15:26:26;28.43;67.05
77523;SHT31;66637;-29.628;-49.938;2024-03-23T15:28:55;28.41;67.22
77523;SHT31;66637;-29.628;-49.938;2024-03-23T15:31:26;28.40;68.29
77523;SHT31;66637;-29.628;-49.938;2024-03-23T15:33:56;28.57;66.47
77523;SHT31;66637;-29.628;-49.938;2024-03-23T15:36:25;28.36;67.68
77523;SHT31;66637;-29.628;-49.938;2024-03-23T15:38:54;28.36;68.54
77523;SHT31;66637;-29.628;-49.938;2024-03-23T15:41:24;28.18;67.17
77523;SHT31;66637;-29.628;-49.938;2024-03-23T15:43:52;28.45;65.88
77523;SHT31;66637;-29.628;-49.938;2024-03-23T15:46:22;28.39;66.22
77523;SHT31;66637;-29.628;-49.938;2024-03-23T15:48:51;28.03;66.13
77523;SHT31;66637;-29.628;-49.938;2024-03-23T15:51:21;27.94;66.11
77523;SHT31;66637;-29.628;-49.938;2024-03-23T15:53:50;27.62;66.19
77523;SHT31;66637;-29.628;-49.938;2024-03-23T15:56:25;27.70;66.17
77523;SHT31;66637;-29.628;-49.938;2024-03-23T15:58:53;27.65;67.27
77523;SHT31;66637;-29.628;-49.938;2024-03-23T16:01:23;27.60;69.19
77523;SHT31;66637;-29.628;-49.938;2024-03-23T16:03:52;27.48;66.48
77523;SHT31;66637;-29.628;-49.938;2024-03-23T16:06:22;27.34;66.87
77523;SHT31;66637;-29.628;-49.938;2024-03-23T16:08:51;27.92;65.84
77523;SHT31;66637;-29.628;-49.938;2024-03-23T16:11:22;27.92;66.56
77523;SHT31;66637;-29.628;-49.938;2024-03-23T16:13:54;27.63;67.99
77523;SHT31;66637;-29.628;-49.938;2024-03-23T16:16:23;27.78;66.88
77523;SHT31;66637;-29.628;-49.938;2024-03-23T16:18:55;27.59;65.99